createdAt,value
2017-03-24T00:00:45.950Z,1022.23
2017-03-24T00:01:54.804Z,1022.27
2017-03-24T00:03:03.669Z,1022.28
2017-03-24T00:04:12.540Z,1022.3
2017-03-24T00:05:21.727Z,1022.33
2017-03-24T00:06:30.586Z,1022.38
2017-03-24T00:07:39.450Z,1022.34
2017-03-24T00:08:48.633Z,1022.38
2017-03-24T00:09:57.815Z,1022.39
2017-03-24T00:11:06.678Z,1022.38
2017-03-24T00:12:15.530Z,1022.41
2017-03-24T00:13:24.443Z,1022.45
2017-03-24T00:14:33.626Z,1022.45
2017-03-24T00:15:42.484Z,1022.46
2017-03-24T00:16:51.344Z,1022.47
2017-03-24T00:18:00.198Z,1022.51
2017-03-24T00:19:09.061Z,1022.52
2017-03-24T00:20:17.926Z,1022.47
2017-03-24T00:21:26.781Z,1022.55
2017-03-24T00:22:35.648Z,1022.5
2017-03-24T00:23:44.507Z,1022.52
2017-03-24T00:24:53.372Z,1022.55
2017-03-24T00:26:02.244Z,1022.59
2017-03-24T00:27:11.094Z,1022.62
2017-03-24T00:28:20.006Z,1022.59
2017-03-24T00:29:28.876Z,1022.6
2017-03-24T00:30:37.753Z,1022.64
2017-03-24T00:31:46.604Z,1022.67
2017-03-24T00:32:55.465Z,1022.62
2017-03-24T00:34:04.660Z,1022.65
2017-03-24T00:35:13.522Z,1022.65
2017-03-24T00:36:22.372Z,1022.65
2017-03-24T00:37:31.225Z,1022.64
2017-03-24T00:38:40.085Z,1022.65
2017-03-24T00:39:48.962Z,1022.65
2017-03-24T00:40:57.815Z,1022.67
2017-03-24T00:42:06.676Z,1022.67
2017-03-24T00:43:15.534Z,1022.7
2017-03-24T00:44:24.402Z,1022.73
2017-03-24T00:45:33.263Z,1022.75
2017-03-24T00:46:42.122Z,1022.73
2017-03-24T00:47:50.986Z,1022.76
2017-03-24T00:48:59.858Z,1022.73
2017-03-24T00:50:08.729Z,1022.75
2017-03-24T00:51:17.582Z,1022.76
2017-03-24T00:52:26.439Z,1022.79
2017-03-24T00:53:35.341Z,1022.85
2017-03-24T00:54:44.212Z,1022.81
2017-03-24T00:55:53.066Z,1022.83
2017-03-24T00:57:01.931Z,1022.86
2017-03-24T00:58:10.788Z,1022.86
2017-03-24T00:59:19.710Z,1022.85
2017-03-24T01:00:28.928Z,1022.87
2017-03-24T01:01:38.114Z,1022.85
2017-03-24T01:02:46.971Z,1022.88
2017-03-24T01:03:55.851Z,1022.83
2017-03-24T01:05:04.717Z,1022.83
2017-03-24T01:06:13.574Z,1022.86
2017-03-24T01:07:22.436Z,1022.86
2017-03-24T01:08:31.299Z,1022.87
2017-03-24T01:09:40.479Z,1022.94
2017-03-24T01:10:49.357Z,1022.91
2017-03-24T01:11:58.208Z,1022.96
2017-03-24T01:13:07.070Z,1022.97
2017-03-24T01:14:15.938Z,1022.99
2017-03-24T01:15:24.803Z,1022.97
2017-03-24T01:16:33.658Z,1022.95
2017-03-24T01:17:42.516Z,1022.94
2017-03-24T01:18:51.386Z,1022.95
2017-03-24T01:20:00.255Z,1022.95
2017-03-24T01:21:09.102Z,1022.95
2017-03-24T01:22:18.272Z,1022.97
2017-03-24T01:23:27.131Z,1023
2017-03-24T01:24:36.007Z,1023.02
2017-03-24T01:25:44.867Z,1023.03
2017-03-24T01:26:54.061Z,1023.03
2017-03-24T01:28:02.919Z,1023.08
2017-03-24T01:29:11.776Z,1023.1
2017-03-24T01:30:20.645Z,1023.13
2017-03-24T01:31:29.505Z,1023.12
2017-03-24T01:32:38.364Z,1023.14
2017-03-24T01:33:47.544Z,1023.16
2017-03-24T01:34:56.419Z,1023.15
2017-03-24T01:36:05.281Z,1023.17
2017-03-24T01:37:14.136Z,1023.18
2017-03-24T01:38:22.995Z,1023.15
2017-03-24T01:39:31.857Z,1023.17
2017-03-24T01:40:40.727Z,1023.15
2017-03-24T01:41:49.587Z,1023.17
2017-03-24T01:42:58.441Z,1023.2
2017-03-24T01:44:07.297Z,1023.23
2017-03-24T01:45:16.156Z,1023.24
2017-03-24T01:46:25.011Z,1023.27
2017-03-24T01:47:33.877Z,1023.28
2017-03-24T01:48:42.752Z,1023.32
2017-03-24T01:49:51.930Z,1023.33
2017-03-24T01:51:00.790Z,1023.34
2017-03-24T01:52:09.651Z,1023.35
2017-03-24T01:53:18.509Z,1023.31
2017-03-24T01:54:27.373Z,1023.28
2017-03-24T01:55:36.559Z,1023.3
2017-03-24T01:56:45.414Z,1023.35
2017-03-24T01:57:54.276Z,1023.35
2017-03-24T01:59:03.154Z,1023.37
2017-03-24T02:00:12.018Z,1023.38
2017-03-24T02:01:20.870Z,1023.43
2017-03-24T02:02:30.036Z,1023.47
2017-03-24T02:03:38.893Z,1023.52
2017-03-24T02:04:47.757Z,1023.51
2017-03-24T02:05:56.644Z,1023.55
2017-03-24T02:07:05.500Z,1023.52
2017-03-24T02:08:14.357Z,1023.54
2017-03-24T02:09:23.614Z,1023.57
2017-03-24T02:10:32.467Z,1023.6
2017-03-24T02:11:41.623Z,1023.6
2017-03-24T02:12:50.481Z,1023.63
2017-03-24T02:13:59.389Z,1023.63
2017-03-24T02:15:08.253Z,1023.64
2017-03-24T02:16:17.102Z,1023.64
2017-03-24T02:17:25.960Z,1023.63
2017-03-24T02:18:34.827Z,1023.65
2017-03-24T02:19:43.698Z,1023.65
2017-03-24T02:20:52.556Z,1023.67
2017-03-24T02:22:01.411Z,1023.71
2017-03-24T02:23:10.268Z,1023.7
2017-03-24T02:24:19.131Z,1023.7
2017-03-24T02:25:27.999Z,1023.7
2017-03-24T02:26:36.858Z,1023.73
2017-03-24T02:27:45.718Z,1023.7
2017-03-24T02:28:54.575Z,1023.72
2017-03-24T02:30:03.436Z,1023.77
2017-03-24T02:31:12.296Z,1023.78
2017-03-24T02:32:21.153Z,1023.79
2017-03-24T02:33:30.015Z,1023.8
2017-03-24T02:34:38.874Z,1023.76
2017-03-24T02:35:47.729Z,1023.78
2017-03-24T02:36:56.584Z,1023.76
2017-03-24T02:38:05.440Z,1023.77
2017-03-24T02:39:14.303Z,1023.76
2017-03-24T02:40:23.175Z,1023.74
2017-03-24T02:41:32.031Z,1023.77
2017-03-24T02:42:41.205Z,1023.78
2017-03-24T02:43:50.076Z,1023.8
2017-03-24T02:44:58.936Z,1023.83
2017-03-24T02:46:07.793Z,1023.85
2017-03-24T02:47:16.650Z,1023.84
2017-03-24T02:48:25.503Z,1023.87
2017-03-24T02:49:34.364Z,1023.88
2017-03-24T02:50:43.222Z,1023.86
2017-03-24T02:51:52.080Z,1023.91
2017-03-24T02:53:00.938Z,1023.94
2017-03-24T02:54:09.802Z,1024.06
2017-03-24T02:55:18.657Z,1024.05
2017-03-24T02:56:27.828Z,1024.07
2017-03-24T02:57:36.692Z,1024.08
2017-03-24T02:58:45.553Z,1024.06
2017-03-24T02:59:54.426Z,1024.1
2017-03-24T03:01:03.283Z,1024.13
2017-03-24T03:02:12.147Z,1024.14
2017-03-24T03:03:21.008Z,1024.13
2017-03-24T03:04:29.872Z,1024.14
2017-03-24T03:05:38.728Z,1024.07
2017-03-24T03:06:47.589Z,1024.15
2017-03-24T03:07:57.329Z,1024.13
2017-03-24T03:09:06.188Z,1024.17
2017-03-24T03:10:15.042Z,1024.16
2017-03-24T03:11:23.906Z,1024.15
2017-03-24T03:12:32.762Z,1024.14
2017-03-24T03:13:41.627Z,1024.16
2017-03-24T03:14:50.501Z,1024.16
2017-03-24T03:15:59.361Z,1024.21
2017-03-24T03:17:08.227Z,1024.2
2017-03-24T03:18:17.082Z,1024.22
2017-03-24T03:19:25.948Z,1024.25
2017-03-24T03:20:34.814Z,1024.28
2017-03-24T03:21:43.985Z,1024.27
2017-03-24T03:22:52.839Z,1024.3
2017-03-24T03:24:01.708Z,1024.33
2017-03-24T03:25:10.586Z,1024.37
2017-03-24T03:26:19.438Z,1024.42
2017-03-24T03:27:28.293Z,1024.43
2017-03-24T03:28:37.158Z,1024.41
2017-03-24T03:29:46.028Z,1024.5
2017-03-24T03:30:54.921Z,1024.45
2017-03-24T03:32:04.095Z,1024.44
2017-03-24T03:33:12.947Z,1024.45
2017-03-24T03:34:21.805Z,1024.49
2017-03-24T03:35:30.669Z,1024.49
2017-03-24T03:36:39.523Z,1024.51
2017-03-24T03:37:48.385Z,1024.54
2017-03-24T03:38:57.242Z,1024.56
2017-03-24T03:40:06.098Z,1024.56
2017-03-24T03:41:14.980Z,1024.59
2017-03-24T03:42:23.838Z,1024.63
2017-03-24T03:43:32.698Z,1024.65
2017-03-24T03:44:41.877Z,1024.66
2017-03-24T03:45:50.743Z,1024.68
2017-03-24T03:46:59.598Z,1024.7
2017-03-24T03:48:08.459Z,1024.74
2017-03-24T03:49:17.321Z,1024.77
2017-03-24T03:50:26.497Z,1024.8
2017-03-24T03:51:35.358Z,1024.81
2017-03-24T03:52:44.216Z,1024.8
2017-03-24T03:53:53.077Z,1024.85
2017-03-24T03:55:01.942Z,1024.87
2017-03-24T03:56:10.803Z,1024.86
2017-03-24T03:57:19.657Z,1024.9
2017-03-24T03:58:28.517Z,1024.92
2017-03-24T03:59:37.386Z,1024.96
2017-03-24T04:00:46.251Z,1024.97
2017-03-24T04:01:55.104Z,1024.98
2017-03-24T04:03:03.966Z,1025.04
2017-03-24T04:04:12.831Z,1025.02
2017-03-24T04:05:21.750Z,1025.02
2017-03-24T04:06:30.608Z,1025
2017-03-24T04:07:39.460Z,1025.03
2017-03-24T04:08:48.323Z,1025
2017-03-24T04:09:57.193Z,1025
2017-03-24T04:11:06.043Z,1024.99
2017-03-24T04:12:14.909Z,1024.99
2017-03-24T04:13:23.764Z,1024.97
2017-03-24T04:14:32.624Z,1024.98
2017-03-24T04:15:41.483Z,1025.01
2017-03-24T04:16:50.338Z,1025.01
2017-03-24T04:17:59.191Z,1025.01
2017-03-24T04:19:08.068Z,1025.05
2017-03-24T04:20:16.936Z,1025.03
2017-03-24T04:21:25.790Z,1025.08
2017-03-24T04:22:34.649Z,1025.05
2017-03-24T04:23:43.507Z,1025.12
2017-03-24T04:24:52.376Z,1025.08
2017-03-24T04:26:01.237Z,1025.12
2017-03-24T04:27:10.087Z,1025.08
2017-03-24T04:28:18.948Z,1025.13
2017-03-24T04:29:27.815Z,1025.14
2017-03-24T04:30:36.670Z,1025.17
2017-03-24T04:31:45.520Z,1025.17
2017-03-24T04:32:54.383Z,1025.23
2017-03-24T04:34:03.251Z,1025.24
2017-03-24T04:35:12.111Z,1025.32
2017-03-24T04:36:20.969Z,1025.36
2017-03-24T04:37:29.826Z,1025.38
2017-03-24T04:38:38.679Z,1025.44
2017-03-24T04:39:47.540Z,1025.43
2017-03-24T04:40:56.401Z,1025.44
2017-03-24T04:42:05.259Z,1025.48
2017-03-24T04:43:14.116Z,1025.48
2017-03-24T04:44:22.982Z,1025.49
2017-03-24T04:45:31.833Z,1025.56
2017-03-24T04:46:40.685Z,1025.59
2017-03-24T04:47:49.543Z,1025.62
2017-03-24T04:48:58.409Z,1025.63
2017-03-24T04:50:07.267Z,1025.66
2017-03-24T04:51:16.130Z,1025.7
2017-03-24T04:52:24.989Z,1025.72
2017-03-24T04:53:33.849Z,1025.72
2017-03-24T04:54:42.705Z,1025.72
2017-03-24T04:55:51.559Z,1025.76
2017-03-24T04:57:00.417Z,1025.79
2017-03-24T04:58:09.276Z,1025.8
2017-03-24T04:59:18.138Z,1025.78
2017-03-24T05:00:27.000Z,1025.81
2017-03-24T05:01:35.857Z,1025.82
2017-03-24T05:02:44.717Z,1025.83
2017-03-24T05:03:53.577Z,1025.87
2017-03-24T05:05:02.443Z,1025.88
2017-03-24T05:06:11.296Z,1025.93
2017-03-24T05:07:20.157Z,1025.94
2017-03-24T05:08:29.015Z,1025.99
2017-03-24T05:09:37.873Z,1025.99
2017-03-24T05:10:46.745Z,1026.04
2017-03-24T05:11:55.599Z,1026.02
2017-03-24T05:13:04.454Z,1026.07
2017-03-24T05:14:13.642Z,1026.09
2017-03-24T05:15:22.500Z,1026.13
2017-03-24T05:16:31.353Z,1026.14
2017-03-24T05:17:40.534Z,1026.17
2017-03-24T05:18:49.400Z,1026.16
2017-03-24T05:19:58.262Z,1026.2
2017-03-24T05:21:07.119Z,1026.24
2017-03-24T05:22:15.969Z,1026.27
2017-03-24T05:23:24.835Z,1026.27
2017-03-24T05:24:33.701Z,1026.28
2017-03-24T05:25:42.554Z,1026.35
2017-03-24T05:26:51.408Z,1026.38
2017-03-24T05:28:00.262Z,1026.38
2017-03-24T05:29:09.125Z,1026.43
2017-03-24T05:30:17.984Z,1026.44
2017-03-24T05:31:26.845Z,1026.46
2017-03-24T05:32:35.713Z,1026.5
2017-03-24T05:33:44.568Z,1026.5
2017-03-24T05:34:53.435Z,1026.52
2017-03-24T05:36:02.304Z,1026.5
2017-03-24T05:37:11.171Z,1026.54
2017-03-24T05:38:20.036Z,1026.54
2017-03-24T05:39:28.894Z,1026.47
2017-03-24T05:40:38.159Z,1026.53
2017-03-24T05:41:47.128Z,1026.49
2017-03-24T05:42:56.069Z,1026.55
2017-03-24T05:44:04.923Z,1026.58
2017-03-24T05:45:13.795Z,1026.59
2017-03-24T05:46:22.921Z,1026.62
2017-03-24T05:47:31.794Z,1026.64
2017-03-24T05:48:40.652Z,1026.69
2017-03-24T05:49:49.520Z,1026.68
2017-03-24T05:50:58.377Z,1026.72
2017-03-24T05:52:07.233Z,1026.77
2017-03-24T05:53:16.093Z,1026.78
2017-03-24T05:54:24.951Z,1026.81
2017-03-24T05:55:33.804Z,1026.84
2017-03-24T05:56:42.661Z,1026.88
2017-03-24T05:57:51.523Z,1026.91
2017-03-24T05:59:00.388Z,1026.9
2017-03-24T06:00:09.244Z,1026.89
2017-03-24T06:01:18.095Z,1026.88
2017-03-24T06:02:26.949Z,1026.93
2017-03-24T06:03:35.812Z,1026.9
2017-03-24T06:04:44.667Z,1026.9
2017-03-24T06:05:53.531Z,1026.93
2017-03-24T06:07:02.388Z,1026.95
2017-03-24T06:08:11.241Z,1026.97
2017-03-24T06:09:20.098Z,1026.97
2017-03-24T06:10:28.964Z,1026.97
2017-03-24T06:11:37.871Z,1027.02
2017-03-24T06:12:46.736Z,1027.02
2017-03-24T06:13:55.605Z,1027.05
2017-03-24T06:15:04.463Z,1027.07
2017-03-24T06:16:13.327Z,1027.06
2017-03-24T06:17:22.180Z,1027.12
2017-03-24T06:18:31.031Z,1027.13
2017-03-24T06:19:40.216Z,1027.11
2017-03-24T06:20:49.081Z,1027.09
2017-03-24T06:21:57.938Z,1027.14
2017-03-24T06:23:06.790Z,1027.17
2017-03-24T06:24:15.658Z,1027.21
2017-03-24T06:25:24.528Z,1027.22
2017-03-24T06:26:33.393Z,1027.27
2017-03-24T06:27:42.263Z,1027.31
2017-03-24T06:28:51.126Z,1027.27
2017-03-24T06:29:59.989Z,1027.27
2017-03-24T06:31:08.849Z,1027.26
2017-03-24T06:32:17.713Z,1027.31
2017-03-24T06:33:26.885Z,1027.33
2017-03-24T06:34:35.755Z,1027.33
2017-03-24T06:35:44.609Z,1027.35
2017-03-24T06:36:53.461Z,1027.33
2017-03-24T06:38:02.324Z,1027.31
2017-03-24T06:39:11.181Z,1027.34
2017-03-24T06:40:20.045Z,1027.37
2017-03-24T06:41:28.899Z,1027.41
2017-03-24T06:42:37.759Z,1027.45
2017-03-24T06:43:46.624Z,1027.44
2017-03-24T06:44:55.525Z,1027.52
2017-03-24T06:46:04.386Z,1027.54
2017-03-24T06:47:13.242Z,1027.56
2017-03-24T06:48:22.101Z,1027.58
2017-03-24T06:49:30.958Z,1027.57
2017-03-24T06:50:39.819Z,1027.6
2017-03-24T06:51:48.993Z,1027.64
2017-03-24T06:52:57.853Z,1027.62
2017-03-24T06:54:06.720Z,1027.66
2017-03-24T06:55:15.589Z,1027.71
2017-03-24T06:56:24.443Z,1027.77
2017-03-24T06:57:33.294Z,1027.81
2017-03-24T06:58:42.161Z,1027.79
2017-03-24T06:59:51.346Z,1027.81
2017-03-24T07:01:00.212Z,1027.82
2017-03-24T07:02:09.068Z,1027.89
2017-03-24T07:03:17.927Z,1027.88
2017-03-24T07:04:26.793Z,1027.87
2017-03-24T07:05:35.672Z,1027.94
2017-03-24T07:06:44.564Z,1027.9
2017-03-24T07:07:53.821Z,1027.95
2017-03-24T07:09:02.688Z,1027.96
2017-03-24T07:10:11.877Z,1027.94
2017-03-24T07:11:20.741Z,1027.97
2017-03-24T07:12:29.595Z,1027.93
2017-03-24T07:13:38.454Z,1027.92
2017-03-24T07:14:47.324Z,1027.89
2017-03-24T07:15:56.194Z,1027.92
2017-03-24T07:17:05.047Z,1027.89
2017-03-24T07:18:13.913Z,1027.9
2017-03-24T07:19:22.774Z,1027.9
2017-03-24T07:20:31.639Z,1027.96
2017-03-24T07:21:40.505Z,1027.95
2017-03-24T07:22:49.362Z,1027.95
2017-03-24T07:23:58.229Z,1027.95
2017-03-24T07:25:07.088Z,1027.93
2017-03-24T07:26:15.947Z,1027.9
2017-03-24T07:27:24.806Z,1027.95
2017-03-24T07:28:33.668Z,1027.96
2017-03-24T07:29:42.547Z,1027.97
2017-03-24T07:30:51.406Z,1028.02
2017-03-24T07:32:00.268Z,1028.01
2017-03-24T07:33:09.124Z,1028
2017-03-24T07:34:17.980Z,1028.05
2017-03-24T07:35:26.837Z,1028.08
2017-03-24T07:36:35.749Z,1028.1
2017-03-24T07:37:44.606Z,1028.13
2017-03-24T07:38:53.470Z,1028.12
2017-03-24T07:40:02.678Z,1028.12
2017-03-24T07:41:11.533Z,1028.14
2017-03-24T07:42:20.396Z,1028.18
2017-03-24T07:43:29.264Z,1028.18
2017-03-24T07:44:38.136Z,1028.19
2017-03-24T07:45:46.994Z,1028.2
2017-03-24T07:46:55.851Z,1028.24
2017-03-24T07:48:04.724Z,1028.26
2017-03-24T07:49:13.573Z,1028.24
2017-03-24T07:50:22.457Z,1028.26
2017-03-24T07:51:31.314Z,1028.27
2017-03-24T07:52:40.177Z,1028.26
2017-03-24T07:53:49.059Z,1028.26
2017-03-24T07:54:57.922Z,1028.29
2017-03-24T07:56:06.842Z,1028.27
2017-03-24T07:57:15.701Z,1028.27
2017-03-24T07:58:24.571Z,1028.32
2017-03-24T07:59:33.426Z,1028.31
2017-03-24T08:00:42.287Z,1028.26
2017-03-24T08:01:51.141Z,1028.3
2017-03-24T08:02:59.998Z,1028.24
2017-03-24T08:04:08.855Z,1028.27
2017-03-24T08:05:17.705Z,1028.24
2017-03-24T08:06:26.564Z,1028.2
2017-03-24T08:07:35.746Z,1028.23
2017-03-24T08:08:44.599Z,1028.26
2017-03-24T08:09:53.460Z,1028.24
2017-03-24T08:11:02.639Z,1028.25
2017-03-24T08:12:11.522Z,1028.28
2017-03-24T08:13:20.378Z,1028.24
2017-03-24T08:14:29.228Z,1028.3
2017-03-24T08:15:38.083Z,1028.26
2017-03-24T08:16:46.932Z,1028.26
2017-03-24T08:17:55.792Z,1028.24
2017-03-24T08:19:04.645Z,1028.23
2017-03-24T08:20:13.491Z,1028.25
2017-03-24T08:21:22.354Z,1028.28
2017-03-24T08:22:31.529Z,1028.26
2017-03-24T08:23:40.381Z,1028.28
2017-03-24T08:24:49.236Z,1028.23
2017-03-24T08:25:58.085Z,1028.28
2017-03-24T08:27:07.256Z,1028.29
2017-03-24T08:28:16.119Z,1028.3
2017-03-24T08:29:24.984Z,1028.32
2017-03-24T08:30:33.833Z,1028.33
2017-03-24T08:31:42.694Z,1028.36
2017-03-24T08:32:51.557Z,1028.29
2017-03-24T08:34:00.413Z,1028.29
2017-03-24T08:35:09.270Z,1028.29
2017-03-24T08:36:18.442Z,1028.31
2017-03-24T08:37:27.289Z,1028.31
2017-03-24T08:38:36.149Z,1028.3
2017-03-24T08:39:44.999Z,1028.29
2017-03-24T08:40:53.855Z,1028.28
2017-03-24T08:42:02.860Z,1028.24
2017-03-24T08:43:11.730Z,1028.22
2017-03-24T08:44:20.579Z,1028.21
2017-03-24T08:45:29.449Z,1028.19
2017-03-24T08:46:38.295Z,1028.18
2017-03-24T08:47:47.164Z,1028.14
2017-03-24T08:48:56.020Z,1028.17
2017-03-24T08:50:04.874Z,1028.2
2017-03-24T08:51:13.732Z,1028.22
2017-03-24T08:52:22.586Z,1028.19
2017-03-24T08:53:31.440Z,1028.24
2017-03-24T08:54:40.291Z,1028.2
2017-03-24T08:55:49.148Z,1028.21
2017-03-24T08:56:58.008Z,1028.22
2017-03-24T08:58:06.864Z,1028.21
2017-03-24T08:59:15.725Z,1028.23
2017-03-24T09:00:24.592Z,1028.29
2017-03-24T09:01:33.454Z,1028.22
2017-03-24T09:02:42.307Z,1028.2
2017-03-24T09:03:51.164Z,1028.21
2017-03-24T09:05:00.030Z,1028.29
2017-03-24T09:06:08.894Z,1028.23
2017-03-24T09:07:17.759Z,1028.28
2017-03-24T09:08:26.612Z,1028.22
2017-03-24T09:09:35.803Z,1028.23
2017-03-24T09:10:44.693Z,1028.33
2017-03-24T09:11:53.552Z,1028.24
2017-03-24T09:13:02.410Z,1028.28
2017-03-24T09:14:11.269Z,1028.27
2017-03-24T09:15:20.166Z,1028.27
2017-03-24T09:16:29.022Z,1028.27
2017-03-24T09:17:37.902Z,1028.27
2017-03-24T09:18:46.752Z,1028.24
2017-03-24T09:19:55.610Z,1028.28
2017-03-24T09:21:04.466Z,1028.28
2017-03-24T09:22:13.332Z,1028.24
2017-03-24T09:23:22.183Z,1028.27
2017-03-24T09:24:31.030Z,1028.32
2017-03-24T09:25:39.887Z,1028.28
2017-03-24T09:26:48.739Z,1028.28
2017-03-24T09:27:57.614Z,1028.24
2017-03-24T09:29:06.463Z,1028.23
2017-03-24T09:30:15.330Z,1028.27
2017-03-24T09:31:24.194Z,1028.25
2017-03-24T09:32:33.061Z,1028.25
2017-03-24T09:33:42.233Z,1028.3
2017-03-24T09:34:51.087Z,1028.21
2017-03-24T09:35:59.938Z,1028.21
2017-03-24T09:37:08.800Z,1028.18
2017-03-24T09:38:17.663Z,1028.15
2017-03-24T09:39:26.520Z,1028.17
2017-03-24T09:40:35.372Z,1028.17
2017-03-24T09:41:44.231Z,1028.21
2017-03-24T09:42:53.093Z,1028.14
2017-03-24T09:44:01.950Z,1028.19
2017-03-24T09:45:10.824Z,1028.18
2017-03-24T09:46:19.679Z,1028.17
2017-03-24T09:47:28.539Z,1028.12
2017-03-24T09:48:37.384Z,1028.16
2017-03-24T09:49:46.238Z,1028.13
2017-03-24T09:50:55.097Z,1028.12
2017-03-24T09:52:03.946Z,1028.17
2017-03-24T09:53:12.806Z,1028.13
2017-03-24T09:54:21.661Z,1028.15
2017-03-24T09:55:30.514Z,1028.17
2017-03-24T09:56:39.366Z,1028.22
2017-03-24T09:57:48.232Z,1028.25
2017-03-24T09:58:57.080Z,1028.27
2017-03-24T10:00:05.936Z,1028.32
2017-03-24T10:01:15.112Z,1028.31
2017-03-24T10:02:23.970Z,1028.34
2017-03-24T10:03:32.822Z,1028.33
2017-03-24T10:04:41.678Z,1028.38
2017-03-24T10:05:50.579Z,1028.41
2017-03-24T10:06:59.440Z,1028.43
2017-03-24T10:08:08.293Z,1028.4
2017-03-24T10:09:17.140Z,1028.37
2017-03-24T10:10:26.008Z,1028.38
2017-03-24T10:11:34.883Z,1028.43
2017-03-24T10:12:43.745Z,1028.31
2017-03-24T10:13:52.595Z,1028.37
2017-03-24T10:15:01.446Z,1028.44
2017-03-24T10:16:10.298Z,1028.43
2017-03-24T10:17:19.152Z,1028.47
2017-03-24T10:18:28.008Z,1028.5
2017-03-24T10:19:36.863Z,1028.51
2017-03-24T10:20:45.726Z,1028.52
2017-03-24T10:21:54.588Z,1028.52
2017-03-24T10:23:03.447Z,1028.53
2017-03-24T10:24:12.321Z,1028.56
2017-03-24T10:25:21.177Z,1028.6
2017-03-24T10:26:30.030Z,1028.58
2017-03-24T10:27:38.902Z,1028.63
2017-03-24T10:28:47.762Z,1028.64
2017-03-24T10:29:56.619Z,1028.68
2017-03-24T10:31:05.473Z,1028.67
2017-03-24T10:32:14.333Z,1028.71
2017-03-24T10:33:23.193Z,1028.72
2017-03-24T10:34:32.048Z,1028.77
2017-03-24T10:35:40.912Z,1028.76
2017-03-24T10:36:49.769Z,1028.76
2017-03-24T10:37:58.667Z,1028.75
2017-03-24T10:39:07.526Z,1028.72
2017-03-24T10:40:16.385Z,1028.74
2017-03-24T10:41:25.438Z,1028.76
2017-03-24T10:42:34.449Z,1028.74
2017-03-24T10:43:43.301Z,1028.74
2017-03-24T10:44:52.149Z,1028.75
2017-03-24T10:46:01.001Z,1028.7
2017-03-24T10:47:09.850Z,1028.68
2017-03-24T10:48:18.702Z,1028.69
2017-03-24T10:49:27.547Z,1028.68
2017-03-24T10:50:36.409Z,1028.66
2017-03-24T10:51:45.261Z,1028.67
2017-03-24T10:52:54.122Z,1028.64
2017-03-24T10:54:02.981Z,1028.64
2017-03-24T10:55:11.833Z,1028.7
2017-03-24T10:56:20.687Z,1028.7
2017-03-24T10:57:29.543Z,1028.72
2017-03-24T10:58:38.395Z,1028.74
2017-03-24T10:59:47.254Z,1028.77
2017-03-24T11:00:56.118Z,1028.82
2017-03-24T11:02:04.973Z,1028.8
2017-03-24T11:03:13.828Z,1028.8
2017-03-24T11:04:22.681Z,1028.84
2017-03-24T11:05:31.532Z,1028.81
2017-03-24T11:06:40.392Z,1028.82
2017-03-24T11:07:49.374Z,1028.79
2017-03-24T11:08:58.229Z,1028.83
2017-03-24T11:10:07.083Z,1028.82
2017-03-24T11:11:15.930Z,1028.81
2017-03-24T11:12:24.792Z,1028.79
2017-03-24T11:13:33.662Z,1028.79
2017-03-24T11:14:42.520Z,1028.8
2017-03-24T11:15:51.382Z,1028.81
2017-03-24T11:17:00.236Z,1028.78
2017-03-24T11:18:09.109Z,1028.79
2017-03-24T11:19:17.964Z,1028.78
2017-03-24T11:20:26.828Z,1028.77
2017-03-24T11:21:35.683Z,1028.75
2017-03-24T11:22:44.544Z,1028.74
2017-03-24T11:23:53.400Z,1028.77
2017-03-24T11:25:02.256Z,1028.8
2017-03-24T11:26:11.117Z,1028.81
2017-03-24T11:27:19.971Z,1028.86
2017-03-24T11:28:28.823Z,1028.89
2017-03-24T11:29:37.679Z,1028.85
2017-03-24T11:30:46.536Z,1028.92
2017-03-24T11:31:55.390Z,1028.86
2017-03-24T11:33:04.245Z,1028.86
2017-03-24T11:34:13.093Z,1028.82
2017-03-24T11:35:21.949Z,1028.89
2017-03-24T11:36:30.807Z,1028.88
2017-03-24T11:37:40.419Z,1028.86
2017-03-24T11:38:50.745Z,1028.86
2017-03-24T11:39:59.592Z,1028.86
2017-03-24T11:41:08.451Z,1028.81
2017-03-24T11:42:17.311Z,1028.86
2017-03-24T11:43:26.163Z,1028.8
2017-03-24T11:44:35.021Z,1028.86
2017-03-24T11:45:43.874Z,1028.87
2017-03-24T11:46:52.721Z,1028.85
2017-03-24T11:48:01.578Z,1028.92
2017-03-24T11:49:10.428Z,1028.84
2017-03-24T11:50:19.319Z,1028.86
2017-03-24T11:51:28.171Z,1028.85
2017-03-24T11:52:37.353Z,1028.85
2017-03-24T11:53:46.217Z,1028.81
2017-03-24T11:54:55.108Z,1028.84
2017-03-24T11:56:03.968Z,1028.79
2017-03-24T11:57:12.823Z,1028.79
2017-03-24T11:58:21.680Z,1028.8
2017-03-24T11:59:30.525Z,1028.79
2017-03-24T12:00:39.379Z,1028.79
2017-03-24T12:01:48.240Z,1028.77
2017-03-24T12:02:57.146Z,1028.71
2017-03-24T12:04:05.995Z,1028.75
2017-03-24T12:05:14.859Z,1028.75
2017-03-24T12:06:23.706Z,1028.77
2017-03-24T12:07:32.887Z,1028.76
2017-03-24T12:08:41.749Z,1028.75
2017-03-24T12:09:50.606Z,1028.75
2017-03-24T12:10:59.457Z,1028.74
2017-03-24T12:12:08.323Z,1028.72
2017-03-24T12:13:17.171Z,1028.74
2017-03-24T12:14:26.023Z,1028.75
2017-03-24T12:15:34.880Z,1028.73
2017-03-24T12:16:43.737Z,1028.74
2017-03-24T12:17:52.591Z,1028.74
2017-03-24T12:19:01.445Z,1028.68
2017-03-24T12:20:10.624Z,1028.67
2017-03-24T12:21:19.478Z,1028.65
2017-03-24T12:22:28.334Z,1028.59
2017-03-24T12:23:37.190Z,1028.55
2017-03-24T12:24:46.041Z,1028.53
2017-03-24T12:25:54.910Z,1028.55
2017-03-24T12:27:03.785Z,1028.55
2017-03-24T12:28:12.645Z,1028.54
2017-03-24T12:29:21.502Z,1028.55
2017-03-24T12:30:30.361Z,1028.51
2017-03-24T12:31:39.218Z,1028.5
2017-03-24T12:32:48.075Z,1028.45
2017-03-24T12:33:56.928Z,1028.44
2017-03-24T12:35:05.791Z,1028.47
2017-03-24T12:36:14.656Z,1028.43
2017-03-24T12:37:23.521Z,1028.4
2017-03-24T12:38:32.373Z,1028.38
2017-03-24T12:39:41.231Z,1028.41
2017-03-24T12:40:50.088Z,1028.39
2017-03-24T12:41:58.963Z,1028.39
2017-03-24T12:43:07.828Z,1028.43
2017-03-24T12:44:17.001Z,1028.41
2017-03-24T12:45:25.856Z,1028.41
2017-03-24T12:46:34.727Z,1028.39
2017-03-24T12:47:43.592Z,1028.39
2017-03-24T12:48:52.455Z,1028.36
2017-03-24T12:50:01.322Z,1028.35
2017-03-24T12:51:10.179Z,1028.38
2017-03-24T12:52:19.033Z,1028.4
2017-03-24T12:53:27.892Z,1028.34
2017-03-24T12:54:36.751Z,1028.37
2017-03-24T12:55:45.608Z,1028.35
2017-03-24T12:56:54.487Z,1028.38
2017-03-24T12:58:03.354Z,1028.37
2017-03-24T12:59:12.207Z,1028.39
2017-03-24T13:00:21.074Z,1028.38
2017-03-24T13:01:29.939Z,1028.37
2017-03-24T13:02:38.809Z,1028.34
2017-03-24T13:03:47.668Z,1028.32
2017-03-24T13:04:56.530Z,1028.36
2017-03-24T13:06:05.395Z,1028.39
2017-03-24T13:07:14.580Z,1028.37
2017-03-24T13:08:23.436Z,1028.39
2017-03-24T13:09:32.292Z,1028.38
2017-03-24T13:10:41.150Z,1028.35
2017-03-24T13:11:50.016Z,1028.33
2017-03-24T13:12:58.876Z,1028.33
2017-03-24T13:14:07.733Z,1028.35
2017-03-24T13:15:16.594Z,1028.33
2017-03-24T13:16:25.460Z,1028.31
2017-03-24T13:17:34.311Z,1028.29
2017-03-24T13:18:43.176Z,1028.29
2017-03-24T13:19:52.036Z,1028.32
2017-03-24T13:21:00.893Z,1028.29
2017-03-24T13:22:09.748Z,1028.31
2017-03-24T13:23:18.613Z,1028.31
2017-03-24T13:24:27.485Z,1028.34
2017-03-24T13:25:36.344Z,1028.34
2017-03-24T13:26:45.197Z,1028.34
2017-03-24T13:27:54.054Z,1028.32
2017-03-24T13:29:02.915Z,1028.33
2017-03-24T13:30:11.772Z,1028.31
2017-03-24T13:31:20.643Z,1028.29
2017-03-24T13:32:29.507Z,1028.35
2017-03-24T13:33:38.363Z,1028.33
2017-03-24T13:34:47.217Z,1028.34
2017-03-24T13:35:56.078Z,1028.33
2017-03-24T13:37:04.934Z,1028.34
2017-03-24T13:38:14.103Z,1028.34
2017-03-24T13:39:22.960Z,1028.35
2017-03-24T13:40:31.818Z,1028.34
2017-03-24T13:41:40.678Z,1028.37
2017-03-24T13:42:49.537Z,1028.37
2017-03-24T13:43:58.395Z,1028.35
2017-03-24T13:45:07.577Z,1028.35
2017-03-24T13:46:16.431Z,1028.29
2017-03-24T13:47:25.293Z,1028.3
2017-03-24T13:48:34.151Z,1028.33
2017-03-24T13:49:43.008Z,1028.35
2017-03-24T13:50:51.865Z,1028.32
2017-03-24T13:52:00.733Z,1028.35
2017-03-24T13:53:09.597Z,1028.32
2017-03-24T13:54:18.463Z,1028.33
2017-03-24T13:55:27.320Z,1028.34
2017-03-24T13:56:36.219Z,1028.37